createdAt,value
2023-10-06T00:00:25.076Z,0.55
2023-10-06T00:01:26.163Z,0.82
2023-10-06T00:02:27.241Z,0.88
2023-10-06T00:03:28.149Z,0.8
2023-10-06T00:04:29.388Z,0.82
2023-10-06T00:05:30.181Z,0.58
2023-10-06T00:06:31.101Z,0.71
2023-10-06T00:07:32.154Z,0.53
2023-10-06T00:08:33.134Z,0.35
2023-10-06T00:09:34.105Z,0.16
2023-10-06T00:10:35.127Z,0.39
2023-10-06T00:11:36.107Z,0.52
2023-10-06T00:12:37.141Z,0.4
2023-10-06T00:13:38.260Z,0.31
2023-10-06T00:14:39.303Z,0.08
2023-10-06T00:15:40.305Z,0.33
2023-10-06T00:16:41.226Z,0.44
2023-10-06T00:17:42.125Z,0.13
2023-10-06T00:18:43.128Z,0.53
2023-10-06T00:19:44.174Z,0.31
2023-10-06T00:20:45.123Z,0.12
2023-10-06T00:21:46.174Z,0.32
2023-10-06T00:22:47.142Z,0.1
2023-10-06T00:23:48.131Z,0.31
2023-10-06T00:24:49.133Z,0.27
2023-10-06T00:25:50.107Z,0.52
2023-10-06T00:26:51.091Z,0.52
2023-10-06T00:27:52.151Z,0.74
2023-10-06T00:28:53.185Z,0.43
2023-10-06T00:29:54.231Z,0.14
2023-10-06T00:30:55.116Z,0.34
2023-10-06T00:31:56.120Z,0.39
2023-10-06T00:32:57.169Z,0
2023-10-06T00:33:58.098Z,0
2023-10-06T00:34:59.203Z,0
2023-10-06T00:36:00.161Z,0
2023-10-06T00:37:01.108Z,0
2023-10-06T00:38:02.201Z,0
2023-10-06T00:39:04.404Z,0
2023-10-06T00:40:05.122Z,0
2023-10-06T00:41:06.218Z,0
2023-10-06T00:42:07.123Z,0
2023-10-06T00:43:08.124Z,0
2023-10-06T00:44:09.202Z,0
2023-10-06T00:45:10.248Z,0
2023-10-06T00:46:11.154Z,0
2023-10-06T00:47:12.301Z,0
2023-10-06T00:48:13.267Z,0
2023-10-06T00:49:14.174Z,0
2023-10-06T00:50:15.118Z,0
2023-10-06T00:51:18.174Z,0
2023-10-06T00:52:17.155Z,0
2023-10-06T00:53:18.164Z,0
2023-10-06T00:54:19.145Z,0
2023-10-06T00:55:20.196Z,0
2023-10-06T00:56:21.302Z,0
2023-10-06T00:57:22.163Z,0
2023-10-06T00:58:23.147Z,0
2023-10-06T00:59:24.148Z,0
2023-10-06T01:00:25.332Z,0
2023-10-06T01:01:26.193Z,0
2023-10-06T01:02:27.245Z,0
2023-10-06T01:03:28.218Z,0
2023-10-06T01:04:29.554Z,0
2023-10-06T01:05:31.161Z,0
2023-10-06T01:06:32.208Z,0
2023-10-06T01:07:33.127Z,0
2023-10-06T01:08:34.185Z,0
2023-10-06T01:09:35.382Z,0
2023-10-06T01:10:36.388Z,0
2023-10-06T01:11:37.199Z,0
2023-10-06T01:12:38.139Z,0
2023-10-06T01:13:39.165Z,0
2023-10-06T01:14:40.131Z,0
2023-10-06T01:15:41.304Z,0
2023-10-06T01:16:42.182Z,0
2023-10-06T01:17:43.184Z,0
2023-10-06T01:18:44.160Z,0
2023-10-06T01:19:45.173Z,0
2023-10-06T01:20:46.214Z,0
2023-10-06T01:21:47.201Z,0
2023-10-06T01:22:48.170Z,0
2023-10-06T01:23:49.242Z,0
2023-10-06T01:24:50.119Z,0
2023-10-06T01:25:51.276Z,0
2023-10-06T01:26:52.198Z,0
2023-10-06T01:27:53.123Z,0
2023-10-06T01:28:54.144Z,0
2023-10-06T01:29:55.140Z,0
2023-10-06T01:30:56.284Z,0
2023-10-06T01:31:57.157Z,0
2023-10-06T01:32:58.262Z,0
2023-10-06T01:35:35.383Z,0
2023-10-06T01:36:36.204Z,0
2023-10-06T01:37:37.123Z,0
2023-10-06T01:38:38.162Z,0
2023-10-06T01:39:39.220Z,0
2023-10-06T01:40:40.231Z,0
2023-10-06T01:41:41.157Z,0
2023-10-06T01:42:42.174Z,0
2023-10-06T01:43:43.246Z,0
2023-10-06T01:44:44.175Z,0
2023-10-06T01:45:45.539Z,0
2023-10-06T01:46:46.325Z,0
2023-10-06T01:47:47.168Z,0
2023-10-06T01:48:48.213Z,0
2023-10-06T01:49:49.435Z,0
2023-10-06T01:50:50.146Z,0
2023-10-06T01:52:02.908Z,0
2023-10-06T01:52:52.211Z,0
2023-10-06T01:53:53.162Z,0
2023-10-06T01:54:54.230Z,0
2023-10-06T01:55:55.229Z,0
2023-10-06T01:56:56.151Z,0
2023-10-06T01:57:57.181Z,0
2023-10-06T01:58:58.188Z,0
2023-10-06T01:59:59.152Z,0
2023-10-06T02:01:00.254Z,0
2023-10-06T02:02:01.426Z,0
2023-10-06T02:03:02.265Z,0
2023-10-06T02:04:03.174Z,0
2023-10-06T02:05:04.467Z,0
2023-10-06T02:06:05.170Z,0
2023-10-06T02:07:06.205Z,0
2023-10-06T02:08:07.240Z,0
2023-10-06T02:09:08.409Z,0
2023-10-06T02:10:09.185Z,0
2023-10-06T02:11:10.267Z,0
2023-10-06T02:12:11.274Z,0
2023-10-06T02:13:12.161Z,0
2023-10-06T02:14:13.172Z,0
2023-10-06T02:15:14.169Z,0
2023-10-06T02:16:15.192Z,0
2023-10-06T02:17:16.679Z,0
2023-10-06T02:18:17.251Z,0
2023-10-06T02:19:18.195Z,0
2023-10-06T02:20:19.545Z,0
2023-10-06T02:21:20.199Z,0.14
2023-10-06T02:22:21.220Z,0
2023-10-06T02:23:22.211Z,0
2023-10-06T02:24:23.195Z,0
2023-10-06T02:25:24.256Z,0.14
2023-10-06T02:26:25.159Z,0
2023-10-06T02:27:26.212Z,0
2023-10-06T02:28:27.206Z,0.23
2023-10-06T02:29:28.231Z,0.55
2023-10-06T02:30:29.221Z,0.16
2023-10-06T02:31:30.207Z,0.15
2023-10-06T02:32:31.375Z,0
2023-10-06T02:33:32.351Z,0.22
2023-10-06T02:34:33.206Z,0.15
2023-10-06T02:35:34.616Z,0.11
2023-10-06T02:36:36.201Z,0.23
2023-10-06T02:37:37.312Z,0
2023-10-06T02:38:38.183Z,0.12
2023-10-06T02:39:39.544Z,0
2023-10-06T02:40:40.216Z,0
2023-10-06T02:41:41.209Z,0
2023-10-06T02:42:42.214Z,0
2023-10-06T02:43:43.224Z,0.13
2023-10-06T02:44:44.211Z,0.31
2023-10-06T02:45:45.150Z,0.24
2023-10-06T02:46:46.295Z,0.39
2023-10-06T02:47:47.462Z,0.24
2023-10-06T02:48:48.203Z,0
2023-10-06T02:49:50.382Z,0
2023-10-06T02:50:51.249Z,0
2023-10-06T02:51:52.233Z,0
2023-10-06T02:52:53.387Z,0
2023-10-06T02:53:54.357Z,0
2023-10-06T02:54:55.200Z,0
2023-10-06T02:55:56.250Z,0.23
2023-10-06T02:56:57.259Z,0.21
2023-10-06T02:57:58.219Z,0
2023-10-06T02:58:59.254Z,0
2023-10-06T03:00:00.286Z,0
2023-10-06T03:01:01.283Z,0.09
2023-10-06T03:02:02.375Z,0.06
2023-10-06T03:03:03.388Z,0
2023-10-06T03:04:04.214Z,0.21
2023-10-06T03:05:05.244Z,0
2023-10-06T03:06:06.197Z,0
2023-10-06T03:07:07.205Z,0
2023-10-06T03:08:08.271Z,0
2023-10-06T03:09:09.370Z,0
2023-10-06T03:10:10.227Z,0
2023-10-06T03:11:11.319Z,0
2023-10-06T03:12:12.232Z,0
2023-10-06T03:13:13.196Z,0
2023-10-06T03:14:14.240Z,0
2023-10-06T03:15:15.200Z,0
2023-10-06T03:16:16.218Z,0
2023-10-06T03:17:17.262Z,0
2023-10-06T03:18:18.398Z,0
2023-10-06T03:19:20.294Z,0
2023-10-06T03:20:21.201Z,0
2023-10-06T03:21:22.248Z,0.07
2023-10-06T03:22:23.248Z,0.33
2023-10-06T03:23:24.219Z,0
2023-10-06T03:24:25.235Z,0.07
2023-10-06T03:25:26.221Z,0.32
2023-10-06T03:26:27.201Z,0.57
2023-10-06T03:27:28.260Z,0.54
2023-10-06T03:28:29.264Z,0.94
2023-10-06T03:29:30.250Z,0.65
2023-10-06T03:30:31.246Z,0.31
2023-10-06T03:31:32.244Z,0.23
2023-10-06T03:32:33.570Z,0.25
2023-10-06T03:33:34.434Z,0.13
2023-10-06T03:34:35.540Z,0.15
2023-10-06T03:35:36.256Z,0
2023-10-06T03:36:37.274Z,0
2023-10-06T03:37:38.293Z,0
2023-10-06T03:38:39.249Z,0.17
2023-10-06T03:39:40.243Z,0.72
2023-10-06T03:40:41.324Z,0.49
2023-10-06T03:41:42.249Z,0.42
2023-10-06T03:42:43.231Z,0.85
2023-10-06T03:43:44.331Z,1.21
2023-10-06T03:44:45.245Z,0.85
2023-10-06T03:45:46.277Z,0.82
2023-10-06T03:46:47.412Z,0.73
2023-10-06T03:47:48.217Z,0.93
2023-10-06T03:48:49.358Z,0.66
2023-10-06T03:49:50.291Z,0.6
2023-10-06T03:50:51.282Z,0.52
2023-10-06T03:51:52.270Z,0.74
2023-10-06T03:52:53.308Z,0.57
2023-10-06T03:53:54.391Z,0.48
2023-10-06T03:54:55.249Z,0.6
2023-10-06T03:55:56.391Z,0.72
2023-10-06T03:56:57.239Z,0.65
2023-10-06T03:57:58.315Z,0.68
2023-10-06T03:58:59.320Z,0.76
2023-10-06T04:00:00.287Z,1.13
2023-10-06T04:01:01.317Z,0.68
2023-10-06T04:02:02.462Z,0.69
2023-10-06T04:03:03.349Z,0.46
2023-10-06T04:04:04.505Z,0.86
2023-10-06T04:05:05.321Z,0.73
2023-10-06T04:06:06.281Z,0.39
2023-10-06T04:07:07.262Z,0.26
2023-10-06T04:08:08.329Z,0.31
2023-10-06T04:09:13.094Z,0.39
2023-10-06T04:10:14.257Z,0.34
2023-10-06T04:11:15.139Z,0.18
2023-10-06T04:12:16.174Z,0.73
2023-10-06T04:13:17.203Z,0.41
2023-10-06T04:14:18.200Z,0.28
2023-10-06T04:15:19.233Z,0.43
2023-10-06T04:16:20.196Z,0.23
2023-10-06T04:17:21.022Z,0.18
2023-10-06T04:18:22.134Z,0.12
2023-10-06T04:19:23.320Z,0.24
2023-10-06T04:20:24.104Z,0.48
2023-10-06T04:21:25.128Z,0.56
2023-10-06T04:22:26.148Z,0.65
2023-10-06T04:23:27.178Z,0.24
2023-10-06T04:24:28.183Z,0.35
2023-10-06T04:25:29.136Z,0.73
2023-10-06T04:26:30.216Z,0.26
2023-10-06T04:27:31.231Z,0.33
2023-10-06T04:28:43.748Z,0.6
2023-10-06T04:29:48.494Z,0.58
2023-10-06T04:30:57.436Z,0.41
2023-10-06T04:32:09.773Z,0.81
2023-10-06T04:33:22.320Z,0.91
2023-10-06T04:34:43.844Z,0.76
2023-10-06T04:36:00.061Z,0.62
2023-10-06T04:37:24.227Z,0.73
2023-10-06T04:38:33.169Z,1.07
2023-10-06T04:39:54.349Z,1.22
2023-10-06T04:41:20.301Z,0.96
2023-10-06T04:42:44.299Z,0.42
2023-10-06T04:44:09.471Z,1.32
2023-10-06T04:45:22.648Z,1.07
2023-10-06T04:46:47.182Z,0.99
2023-10-06T04:48:11.161Z,0.81
2023-10-06T04:49:35.456Z,0.94
2023-10-06T04:50:59.588Z,1.79
2023-10-06T04:52:23.793Z,1
2023-10-06T04:53:48.781Z,1.25
2023-10-06T04:55:12.811Z,1.31
2023-10-06T04:56:37.638Z,0.91
2023-10-06T04:58:01.955Z,0.82
2023-10-06T04:59:26.131Z,0.48
2023-10-06T05:00:50.090Z,1.01
2023-10-06T05:02:14.277Z,0.39
2023-10-06T05:03:39.338Z,0.19
2023-10-06T05:04:45.714Z,0.37
2023-10-06T05:06:12.686Z,0.37
2023-10-06T05:07:37.098Z,0.1
2023-10-06T05:08:51.611Z,0.13
2023-10-06T05:10:08.710Z,0.26
2023-10-06T05:11:34.556Z,0.19
2023-10-06T05:13:00.568Z,0
2023-10-06T05:14:25.626Z,0
2023-10-06T05:15:50.715Z,0
2023-10-06T05:17:14.851Z,0
2023-10-06T05:18:40.044Z,0
2023-10-06T05:19:45.372Z,0
2023-10-06T05:21:10.081Z,0
2023-10-06T05:22:35.617Z,0
2023-10-06T05:24:06.397Z,0
2023-10-06T05:25:12.795Z,0
2023-10-06T05:26:40.100Z,0
2023-10-06T05:28:04.200Z,0
2023-10-06T05:29:28.430Z,0.14
2023-10-06T05:30:53.855Z,0
2023-10-06T05:32:19.694Z,0
2023-10-06T05:33:43.979Z,0
2023-10-06T05:35:09.385Z,0
2023-10-06T05:36:38.669Z,0
2023-10-06T05:38:03.071Z,0
2023-10-06T05:39:27.013Z,0.53
2023-10-06T05:40:51.188Z,0.64
2023-10-06T05:41:56.161Z,0
2023-10-06T05:43:17.101Z,0
2023-10-06T05:44:22.181Z,0
2023-10-06T05:45:46.353Z,0
2023-10-06T05:47:10.715Z,0
2023-10-06T05:48:35.848Z,0
2023-10-06T05:49:59.529Z,0
2023-10-06T05:51:23.813Z,0.16
2023-10-06T05:52:40.841Z,0
2023-10-06T05:54:06.630Z,0
2023-10-06T05:55:18.610Z,0.05
2023-10-06T05:56:47.104Z,0
2023-10-06T05:58:13.340Z,0
2023-10-06T05:59:23.233Z,0
2023-10-06T06:00:49.472Z,0
2023-10-06T06:01:59.666Z,0
2023-10-06T06:03:25.495Z,0
2023-10-06T06:04:46.644Z,0
2023-10-06T06:05:56.576Z,0.13
2023-10-06T06:07:03.476Z,0.07
2023-10-06T06:08:28.232Z,0.08
2023-10-06T06:09:53.028Z,0.06
2023-10-06T06:11:17.425Z,0.18
2023-10-06T06:12:40.996Z,0
2023-10-06T06:13:59.269Z,0.14
2023-10-06T06:15:19.104Z,0
2023-10-06T06:16:48.269Z,0.08
2023-10-06T06:18:04.736Z,0
2023-10-06T06:19:29.479Z,0
2023-10-06T06:20:46.638Z,0.11
2023-10-06T06:22:12.966Z,0.14
2023-10-06T06:23:37.691Z,0
2023-10-06T06:25:02.468Z,0.04
2023-10-06T06:26:27.333Z,0.17
2023-10-06T06:27:53.914Z,0.17
2023-10-06T06:29:18.542Z,0.15
2023-10-06T06:30:42.936Z,0
2023-10-06T06:32:08.312Z,0.25
2023-10-06T06:33:34.297Z,0.5
2023-10-06T06:34:39.273Z,0.28
2023-10-06T06:36:06.036Z,0.35
2023-10-06T06:37:33.129Z,0
2023-10-06T06:38:59.115Z,0.42
2023-10-06T06:40:23.215Z,0.38
2023-10-06T06:41:47.263Z,0.34
2023-10-06T06:43:13.299Z,0.24
2023-10-06T06:44:39.025Z,0.62
2023-10-06T06:46:03.589Z,1.12
2023-10-06T06:47:27.666Z,0.45
2023-10-06T06:48:33.368Z,0.45
2023-10-06T06:49:53.451Z,0.35
2023-10-06T06:51:18.973Z,0.13
2023-10-06T06:52:43.210Z,0.12
2023-10-06T06:54:08.812Z,0.29
2023-10-06T06:55:36.999Z,0.65
2023-10-06T06:57:01.387Z,0.61
2023-10-06T06:58:26.712Z,0.2
2023-10-06T06:59:50.833Z,0.33
2023-10-06T07:01:14.898Z,0.5
2023-10-06T07:02:39.876Z,0.23
2023-10-06T07:04:04.193Z,0.72
2023-10-06T07:05:28.009Z,0.49
2023-10-06T07:06:53.804Z,0.24
2023-10-06T07:08:18.461Z,0.17
2023-10-06T07:09:43.440Z,0.55
2023-10-06T07:11:07.909Z,0.81
2023-10-06T07:12:33.942Z,0.67
2023-10-06T07:13:58.816Z,0.56
2023-10-06T07:15:23.023Z,0.44
2023-10-06T07:16:47.121Z,0.96
2023-10-06T07:18:11.187Z,1.39
2023-10-06T07:19:35.324Z,0.58
2023-10-06T07:20:59.209Z,1
2023-10-06T07:22:25.330Z,0.88
2023-10-06T07:23:30.217Z,0.94
2023-10-06T07:24:57.816Z,1.23
2023-10-06T07:26:26.235Z,0.65
2023-10-06T07:27:50.634Z,0.43
2023-10-06T07:29:15.644Z,0.24
2023-10-06T07:30:40.023Z,0.68
2023-10-06T07:32:04.873Z,1.37
2023-10-06T07:33:13.296Z,1.7
2023-10-06T07:34:39.683Z,0.65
2023-10-06T07:35:52.945Z,1.33
2023-10-06T07:37:19.569Z,0.41
2023-10-06T07:38:43.588Z,1
2023-10-06T07:40:08.564Z,1.06
2023-10-06T07:41:32.900Z,1.16
2023-10-06T07:42:56.995Z,1.18
2023-10-06T07:44:17.116Z,0.7
2023-10-06T07:45:24.802Z,0.49
2023-10-06T07:46:48.222Z,0.61
2023-10-06T07:48:15.360Z,0.77
2023-10-06T07:49:40.123Z,1.14
2023-10-06T07:51:04.431Z,0.89
2023-10-06T07:52:29.420Z,0.47
2023-10-06T07:53:58.390Z,1.14
2023-10-06T07:55:23.649Z,1.59
2023-10-06T07:56:28.668Z,1.29
2023-10-06T07:57:54.097Z,1.29
2023-10-06T07:59:11.800Z,0.97
2023-10-06T08:00:18.311Z,0.75
2023-10-06T08:01:43.710Z,1.46
2023-10-06T08:03:08.364Z,1.53
2023-10-06T08:04:32.306Z,1.13
2023-10-06T08:05:41.069Z,0.93
2023-10-06T08:07:05.116Z,0.84
2023-10-06T08:08:29.183Z,1.31
2023-10-06T08:09:54.502Z,0.93
2023-10-06T08:11:22.301Z,0.4
2023-10-06T08:12:43.484Z,2.57
2023-10-06T08:14:10.854Z,1.86
2023-10-06T08:15:34.731Z,2.3
2023-10-06T08:16:58.943Z,2.04
2023-10-06T08:18:23.256Z,1.71
2023-10-06T08:19:29.485Z,1.05
2023-10-06T08:20:53.750Z,0.65
2023-10-06T08:22:19.006Z,2.23
2023-10-06T08:23:43.227Z,2.15
2023-10-06T08:25:07.157Z,1.42
2023-10-06T08:26:32.337Z,0.66
2023-10-06T08:27:59.287Z,0.82
2023-10-06T08:29:22.779Z,1.99
2023-10-06T08:30:32.139Z,2.15
2023-10-06T08:31:57.348Z,0.28
2023-10-06T08:33:21.526Z,0.95
2023-10-06T08:34:47.386Z,1.34
2023-10-06T08:36:13.062Z,0.91
2023-10-06T08:37:38.476Z,1.19
2023-10-06T08:38:55.209Z,0.48
2023-10-06T08:40:19.443Z,1.11
2023-10-06T08:41:47.642Z,0.48
2023-10-06T08:43:15.510Z,0.61
2023-10-06T08:44:40.372Z,2.12
2023-10-06T08:45:53.477Z,1.92
2023-10-06T08:47:27.734Z,2.04
2023-10-06T08:48:43.092Z,1.61
2023-10-06T08:49:55.965Z,1.23
2023-10-06T08:51:20.108Z,0.85
2023-10-06T08:52:46.850Z,1.05
2023-10-06T08:54:12.714Z,0.75
2023-10-06T08:55:41.016Z,1.06
2023-10-06T08:56:54.076Z,1.44
2023-10-06T08:58:17.916Z,1.22
2023-10-06T08:59:42.806Z,1.88
2023-10-06T09:01:08.219Z,1.21
2023-10-06T09:02:32.414Z,1.09
2023-10-06T09:03:56.494Z,1.99
2023-10-06T09:05:21.175Z,2.07
2023-10-06T09:06:45.933Z,0.64
2023-10-06T09:08:11.167Z,1
2023-10-06T09:09:35.958Z,0.58
2023-10-06T09:11:00.009Z,1.9
2023-10-06T09:12:25.102Z,1.69
2023-10-06T09:13:50.295Z,1.19
2023-10-06T09:15:14.402Z,0.82
2023-10-06T09:16:34.716Z,0.86
2023-10-06T09:17:39.570Z,0.6
2023-10-06T09:19:03.621Z,0.39
2023-10-06T09:20:30.831Z,0.58
2023-10-06T09:21:53.784Z,0.82
2023-10-06T09:23:06.380Z,0.94
2023-10-06T09:24:15.096Z,1.32
2023-10-06T09:25:44.426Z,0.37
2023-10-06T09:27:06.384Z,1.47
2023-10-06T09:28:34.891Z,2
2023-10-06T09:30:17.429Z,1.53
2023-10-06T09:31:52.443Z,2.23
2023-10-06T09:33:38.268Z,1.64
2023-10-06T09:35:02.582Z,1.53
2023-10-06T09:36:36.606Z,0.83
2023-10-06T09:37:34.073Z,0.56
2023-10-06T09:38:55.598Z,1.87
2023-10-06T09:40:19.852Z,1.19
2023-10-06T09:41:45.994Z,0.47
2023-10-06T09:43:04.336Z,1
2023-10-06T09:44:30.448Z,1.34
2023-10-06T09:45:55.851Z,0.37
2023-10-06T09:47:23.782Z,0.98
2023-10-06T09:48:47.661Z,1.57
2023-10-06T09:50:11.808Z,1.73
2023-10-06T09:51:20.791Z,2.4
2023-10-06T09:52:38.695Z,1.62
2023-10-06T09:54:02.946Z,1.86
2023-10-06T09:55:19.784Z,1.9
2023-10-06T09:56:46.041Z,1.25
2023-10-06T09:58:10.852Z,1.65
2023-10-06T09:59:36.646Z,1.17
2023-10-06T10:01:00.863Z,1.2
2023-10-06T10:02:25.664Z,1.82
2023-10-06T10:03:33.277Z,0.97
2023-10-06T10:04:58.579Z,0.37
2023-10-06T10:06:26.083Z,0.41
2023-10-06T10:07:50.387Z,1.31
2023-10-06T10:09:13.449Z,1.77
2023-10-06T10:10:18.138Z,1.29
2023-10-06T10:11:42.722Z,1.12
2023-10-06T10:13:06.905Z,0.75
2023-10-06T10:14:31.693Z,1.71
2023-10-06T10:16:00.839Z,0.84
2023-10-06T10:17:28.042Z,1.57
2023-10-06T10:18:43.405Z,0.55
2023-10-06T10:20:07.416Z,0.67
2023-10-06T10:21:31.451Z,1.55
2023-10-06T10:22:57.167Z,1.44
2023-10-06T10:25:38.870Z,1.47
2023-10-06T10:27:01.079Z,1.48
2023-10-06T10:28:15.873Z,1.14
2023-10-06T10:29:41.218Z,1.6
2023-10-06T10:31:06.190Z,2.49
2023-10-06T10:32:31.271Z,1.56
2023-10-06T10:33:59.395Z,2.19
2023-10-06T10:35:18.045Z,2.06
2023-10-06T10:36:31.124Z,1.33
2023-10-06T10:37:55.376Z,0.52
2023-10-06T10:39:20.527Z,1.33
2023-10-06T10:40:44.767Z,1.7
2023-10-06T10:41:57.875Z,2.63
2023-10-06T10:43:25.753Z,1.85
2023-10-06T10:44:31.365Z,1.31
2023-10-06T10:45:55.137Z,1.2
2023-10-06T10:47:19.216Z,1.82
2023-10-06T10:48:45.693Z,0.6
2023-10-06T10:50:10.847Z,2.11
2023-10-06T10:51:35.644Z,2.71
2023-10-06T10:52:48.676Z,2.34
2023-10-06T10:54:16.277Z,2.25
2023-10-06T10:55:31.627Z,1.47
2023-10-06T10:56:45.282Z,1.38
2023-10-06T10:58:11.830Z,1.23
2023-10-06T10:59:36.668Z,0.71
2023-10-06T11:01:02.280Z,0.27
2023-10-06T11:02:27.250Z,0.71
2023-10-06T11:03:51.925Z,0.97
2023-10-06T11:05:16.225Z,0.84
2023-10-06T11:06:41.486Z,1.78
2023-10-06T11:08:06.222Z,1.4
2023-10-06T11:09:30.508Z,1.6
2023-10-06T11:10:54.413Z,0.46
2023-10-06T11:13:54.243Z,1.41
2023-10-06T11:15:07.731Z,1.57
2023-10-06T11:16:31.971Z,2.02
2023-10-06T11:17:56.902Z,1.75
2023-10-06T11:19:20.971Z,1.94
2023-10-06T11:20:45.356Z,2.4
2023-10-06T11:22:09.739Z,1.49
2023-10-06T11:23:34.602Z,1.26
2023-10-06T11:24:59.766Z,0.94
2023-10-06T11:26:30.665Z,1.45
2023-10-06T11:27:57.745Z,1.6
2023-10-06T11:29:22.809Z,1.17
2023-10-06T11:30:48.031Z,1.06
2023-10-06T11:32:12.989Z,1.54
2023-10-06T11:33:18.350Z,2.58
2023-10-06T11:34:46.618Z,2.27
2023-10-06T11:36:11.178Z,1.36
2023-10-06T11:37:35.332Z,1.25
2023-10-06T11:38:59.271Z,1.21
2023-10-06T11:40:24.709Z,1.27
2023-10-06T11:41:35.080Z,1.07
2023-10-06T11:43:01.301Z,2.02
2023-10-06T11:44:26.429Z,1.56
2023-10-06T11:45:43.726Z,1.43
2023-10-06T11:47:12.063Z,1.59
2023-10-06T11:48:39.918Z,1.65
2023-10-06T11:50:04.237Z,2.29
2023-10-06T11:51:28.319Z,1.41
2023-10-06T11:52:52.545Z,0.67
2023-10-06T11:54:18.435Z,0.74
2023-10-06T11:55:43.482Z,0.85
2023-10-06T11:57:07.598Z,0.71
2023-10-06T11:58:32.124Z,0.33
2023-10-06T11:59:59.835Z,0.54
2023-10-06T12:01:09.540Z,0.77
2023-10-06T12:02:36.776Z,1.81
2023-10-06T12:03:54.024Z,2.11
2023-10-06T12:05:18.149Z,3.05
2023-10-06T12:06:45.501Z,2.17
2023-10-06T12:08:10.667Z,1.35
2023-10-06T12:09:36.523Z,1.11
2023-10-06T12:10:41.574Z,1.88
2023-10-06T12:12:06.589Z,2.99
2023-10-06T12:13:29.353Z,1.87
2023-10-06T12:14:54.906Z,1.03
2023-10-06T12:16:18.906Z,0.73
2023-10-06T12:17:35.918Z,0.36
2023-10-06T12:19:00.325Z,1.8
2023-10-06T12:20:26.406Z,1.62
2023-10-06T12:21:47.751Z,2.45
2023-10-06T12:23:12.135Z,1.67
2023-10-06T12:24:37.237Z,1.26
2023-10-06T12:25:51.520Z,0.84
2023-10-06T12:27:17.309Z,1.56
2023-10-06T12:28:41.920Z,2.02
2023-10-06T12:30:05.827Z,2.07
2023-10-06T12:31:29.956Z,1.47
2023-10-06T12:32:46.986Z,1.5
2023-10-06T12:34:13.657Z,1.49
2023-10-06T12:35:30.942Z,2.27
2023-10-06T12:36:47.904Z,1.21
2023-10-06T12:38:13.446Z,0.26
2023-10-06T12:39:38.569Z,1.61
2023-10-06T12:41:04.637Z,1.62
2023-10-06T12:42:28.794Z,2.62
2023-10-06T12:43:52.989Z,1.93
2023-10-06T12:45:07.089Z,1.89
2023-10-06T12:46:31.539Z,1.96
2023-10-06T12:47:40.818Z,1.62
2023-10-06T12:49:05.178Z,1.42
2023-10-06T12:50:30.351Z,1.77
2023-10-06T12:51:36.021Z,1.51
2023-10-06T12:53:00.366Z,2.57
2023-10-06T12:54:26.792Z,2.43
2023-10-06T12:55:52.460Z,1.79
2023-10-06T12:57:16.559Z,2.49
2023-10-06T12:58:40.942Z,1.36
2023-10-06T13:00:06.851Z,0.76
2023-10-06T13:01:31.557Z,0.57
2023-10-06T13:02:56.252Z,1.17
2023-10-06T13:04:22.686Z,2.41
2023-10-06T13:05:32.702Z,2.47
2023-10-06T13:06:58.595Z,1.59
2023-10-06T13:08:04.224Z,2.03
2023-10-06T13:09:29.073Z,1.49
2023-10-06T13:10:56.422Z,2.46
2023-10-06T13:12:22.370Z,1.91
2023-10-06T13:13:27.676Z,2.72
2023-10-06T13:14:54.075Z,2.44
2023-10-06T13:16:19.210Z,2.05
2023-10-06T13:17:41.004Z,1.85
2023-10-06T13:18:54.668Z,1.58
2023-10-06T13:20:23.356Z,1.89
2023-10-06T13:21:51.168Z,1.61
2023-10-06T13:23:15.504Z,2.72
2023-10-06T13:24:30.860Z,2.54
2023-10-06T13:25:45.271Z,2.61
2023-10-06T13:26:51.298Z,2.4
2023-10-06T13:28:15.379Z,2.63
2023-10-06T13:29:24.643Z,1.9
2023-10-06T13:30:52.189Z,1.68
2023-10-06T13:31:57.435Z,1.45
2023-10-06T13:33:23.610Z,2.53
2023-10-06T13:34:40.636Z,2.4
2023-10-06T13:36:06.451Z,2.46
2023-10-06T13:37:28.714Z,1.51
2023-10-06T13:38:52.853Z,2.02
2023-10-06T13:40:17.901Z,1.27
2023-10-06T13:41:42.485Z,1.95
2023-10-06T13:43:07.179Z,2.2
2023-10-06T13:44:31.327Z,2.02
2023-10-06T13:45:57.446Z,1.11
2023-10-06T13:47:21.509Z,1.16
2023-10-06T13:48:41.878Z,1.24
2023-10-06T13:49:58.230Z,3.01
2023-10-06T13:51:22.272Z,2.22
2023-10-06T13:52:31.595Z,2.9
2023-10-06T13:53:58.057Z,2.33
2023-10-06T13:55:11.482Z,1.97
2023-10-06T13:56:36.072Z,1.43
2023-10-06T13:58:00.984Z,1.23
2023-10-06T13:59:25.158Z,1.1
2023-10-06T14:00:49.224Z,1.2
2023-10-06T14:02:14.083Z,1.84
2023-10-06T14:03:38.425Z,1.63
2023-10-06T14:05:02.698Z,1.82
2023-10-06T14:06:19.808Z,1.69
2023-10-06T14:07:48.608Z,1.99
2023-10-06T14:09:06.919Z,3.04
2023-10-06T14:10:21.184Z,1.43
2023-10-06T14:11:49.149Z,2.47
2023-10-06T14:13:16.226Z,2.21
2023-10-06T14:14:42.090Z,2.21
2023-10-06T14:15:48.971Z,2.34
2023-10-06T14:17:16.472Z,1.88
2023-10-06T14:18:33.707Z,2.54
2023-10-06T14:19:58.437Z,1.68
2023-10-06T14:21:21.116Z,2.96
2023-10-06T14:22:31.529Z,3.13
2023-10-06T14:23:56.070Z,1.55
2023-10-06T14:25:20.026Z,1.26
2023-10-06T14:26:33.199Z,1.79
2023-10-06T14:27:57.667Z,1.99
2023-10-06T14:29:21.830Z,2.34
2023-10-06T14:30:45.966Z,1.54
2023-10-06T14:32:11.966Z,1.78
2023-10-06T14:33:36.164Z,1.73
2023-10-06T14:35:00.349Z,1.9
2023-10-06T14:36:17.434Z,1.02
2023-10-06T14:37:43.691Z,2.52
2023-10-06T14:39:07.924Z,1.34
2023-10-06T14:40:37.071Z,1.64
2023-10-06T14:42:01.045Z,1.89
2023-10-06T14:43:25.224Z,1.3
2023-10-06T14:44:50.665Z,2.01
2023-10-06T14:46:12.400Z,2.6
2023-10-06T14:47:37.980Z,1.7
2023-10-06T14:49:04.739Z,2.02
2023-10-06T14:50:14.494Z,1.91
2023-10-06T14:51:38.525Z,2.03
2023-10-06T14:53:03.352Z,2.37
2023-10-06T14:54:25.017Z,2.44
2023-10-06T14:55:51.033Z,2.56
2023-10-06T14:56:56.251Z,1.98
2023-10-06T14:58:21.363Z,2.01
2023-10-06T14:59:46.165Z,2.08
2023-10-06T15:01:07.721Z,2.21
2023-10-06T15:02:32.782Z,1.8
2023-10-06T15:04:01.569Z,2.26
2023-10-06T15:05:08.739Z,2.2
2023-10-06T15:06:35.456Z,1.76
2023-10-06T15:07:59.646Z,1.21
2023-10-06T15:09:23.915Z,1.69
2023-10-06T15:10:35.702Z,1.42
2023-10-06T15:12:00.839Z,1.57
2023-10-06T15:13:25.580Z,1.22
2023-10-06T15:14:49.715Z,1.18
2023-10-06T15:16:13.728Z,1.34
2023-10-06T15:17:34.327Z,1.49
2023-10-06T15:19:00.286Z,1.8
2023-10-06T15:20:27.207Z,1.97
2023-10-06T15:21:36.450Z,1.39
2023-10-06T15:23:02.300Z,1.04
2023-10-06T15:24:27.111Z,1.12
2023-10-06T15:25:51.184Z,1.28
2023-10-06T15:27:15.474Z,1.4
2023-10-06T15:28:38.424Z,1.17
2023-10-06T15:29:52.929Z,1.74
2023-10-06T15:31:17.242Z,1.48
2023-10-06T15:32:37.344Z,0.93
2023-10-06T15:34:01.440Z,1.47
2023-10-06T15:35:25.653Z,1.56
2023-10-06T15:36:50.693Z,1.39
2023-10-06T15:38:15.055Z,1.32
2023-10-06T15:39:20.319Z,0.85
2023-10-06T15:40:44.841Z,1.68
2023-10-06T15:42:09.944Z,2.13
2023-10-06T15:43:33.917Z,1.23
2023-10-06T15:44:59.005Z,1.39
2023-10-06T15:46:25.526Z,1.03
2023-10-06T15:47:57.300Z,1.22
2023-10-06T15:49:21.514Z,1.33
2023-10-06T15:50:34.247Z,1.01
2023-10-06T15:51:42.760Z,1.12
2023-10-06T15:53:06.988Z,1.48
2023-10-06T15:54:32.841Z,1.35
2023-10-06T15:55:57.934Z,0.83
2023-10-06T15:57:22.018Z,1.06
2023-10-06T15:58:44.052Z,0.67
2023-10-06T16:00:10.443Z,1.13
2023-10-06T16:01:36.510Z,1.01
2023-10-06T16:03:01.894Z,1.54
2023-10-06T16:04:23.026Z,1.63
2023-10-06T16:05:48.118Z,0.73
2023-10-06T16:07:09.723Z,1.18
2023-10-06T16:08:27.634Z,1.66
2023-10-06T16:09:53.879Z,1.3
2023-10-06T16:11:18.917Z,1.39
2023-10-06T16:12:45.334Z,1.3
2023-10-06T16:14:10.213Z,1.29
2023-10-06T16:15:34.235Z,1.36
2023-10-06T16:16:58.282Z,1.24
2023-10-06T16:18:03.962Z,1.31
2023-10-06T16:19:28.220Z,2.04
2023-10-06T16:20:52.508Z,1.17
2023-10-06T16:22:14.597Z,1.46
2023-10-06T16:23:31.410Z,1.04
2023-10-06T16:24:56.271Z,0.83
2023-10-06T16:26:21.429Z,1.51
2023-10-06T16:27:46.810Z,1.51
2023-10-06T16:29:12.107Z,1.06
2023-10-06T16:30:35.865Z,1.16
2023-10-06T16:32:00.307Z,1.13
2023-10-06T16:33:25.045Z,0.96
2023-10-06T16:34:50.192Z,1.53
2023-10-06T16:36:14.487Z,1.45
2023-10-06T16:37:38.354Z,2.01
2023-10-06T16:39:03.461Z,1.23
2023-10-06T16:40:27.640Z,1.54
2023-10-06T16:41:52.564Z,1.02
2023-10-06T16:43:18.694Z,0.98
2023-10-06T16:44:42.821Z,1.08
2023-10-06T16:46:08.145Z,1.39
2023-10-06T16:47:32.159Z,0.84
2023-10-06T16:48:58.097Z,1.01
2023-10-06T16:50:11.244Z,0.87
2023-10-06T16:51:20.773Z,0.75
2023-10-06T16:52:47.484Z,1.15
2023-10-06T16:54:11.786Z,0.96
2023-10-06T16:55:35.720Z,1.14
2023-10-06T16:56:59.991Z,0.96
2023-10-06T16:58:24.945Z,1.52
2023-10-06T16:59:49.250Z,0.77
2023-10-06T17:01:15.191Z,0.95
2023-10-06T17:02:41.371Z,0.83
2023-10-06T17:04:05.905Z,0.7
2023-10-06T17:05:10.552Z,1.02
2023-10-06T17:06:39.651Z,1.04
2023-10-06T17:07:48.258Z,0.77
2023-10-06T17:09:13.236Z,1.07
2023-10-06T17:10:37.216Z,0.65
2023-10-06T17:12:08.903Z,0.68
2023-10-06T17:13:33.616Z,1.14
2023-10-06T17:14:57.700Z,0.95
2023-10-06T17:16:17.987Z,0.45